Time;durP1;ratioP1;P1;durP2;ratioP2;P2;SDS_P1;SDS_P2;PMS_P1;PMS_P2;Temp;Humidity;BMP_temperature;BMP_pressure;BME280_temperature;BME280_humidity;BME280_pressure;Samples;Min_cycle;Max_cycle;Signal;HPM_P1;HPM_P2
2022/12/08 00:01:20;;;;;;;0.20;0.20;;;;;;;2.25;100.00;101078.22;4968594;28;20042;-75
2022/12/08 00:03:46;;;;;;;0.20;0.20;;;;;;;2.09;100.00;101055.91;4964972;28;20043;-75
2022/12/08 00:09:28;;;;;;;0.20;0.20;;;;;;;2.13;100.00;101070.72;4965596;28;20041;-74
2022/12/08 00:11:59;;;;;;;0.20;0.20;;;;;;;2.24;100.00;101062.38;4940848;28;20023;-74
2022/12/08 00:14:30;;;;;;;0.10;0.10;;;;;;;2.15;100.00;101029.13;4954554;28;20058;-74
2022/12/08 00:16:56;;;;;;;0.20;0.20;;;;;;;2.34;100.00;101058.41;4969024;28;20109;-74
2022/12/08 00:19:22;;;;;;;0.20;0.20;;;;;;;2.27;100.00;101059.59;4955285;28;20031;-74
2022/12/08 00:21:48;;;;;;;0.20;0.20;;;;;;;2.34;100.00;101055.78;4951298;28;20046;-74
2022/12/08 00:24:14;;;;;;;0.20;0.20;;;;;;;2.25;100.00;101034.97;4972856;28;20035;-73
2022/12/08 00:26:39;;;;;;;0.20;0.20;;;;;;;2.31;100.00;101037.34;4971727;28;20046;-74
2022/12/08 00:29:05;;;;;;;0.20;0.20;;;;;;;2.24;100.00;101018.19;4953188;28;20061;-74
2022/12/08 00:31:30;;;;;;;0.17;0.17;;;;;;;2.28;100.00;101024.22;4953464;28;20052;-74
2022/12/08 00:33:57;;;;;;;0.13;0.13;;;;;;;2.42;100.00;101033.41;4941224;28;20035;-74
2022/12/08 00:36:22;;;;;;;0.20;0.20;;;;;;;2.31;100.00;101013.50;4954240;28;20122;-74
2022/12/08 00:38:47;;;;;;;0.10;0.10;;;;;;;2.38;100.00;101035.34;4950749;28;20503;-74
2022/12/08 00:41:15;;;;;;;0.20;0.20;;;;;;;2.35;100.00;101025.69;4936987;28;20065;-74
2022/12/08 00:43:41;;;;;;;0.20;0.20;;;;;;;2.39;100.00;101032.59;4948299;28;20027;-73
2022/12/08 00:46:06;;;;;;;0.20;0.20;;;;;;;2.24;100.00;100990.84;4947068;28;20042;-74
2022/12/08 00:48:31;;;;;;;0.20;0.20;;;;;;;2.35;100.00;101014.25;4943700;28;20090;-74
2022/12/08 00:50:57;;;;;;;0.20;0.20;;;;;;;2.45;100.00;101026.19;4932183;28;20502;-74
2022/12/08 00:53:22;;;;;;;0.20;0.20;;;;;;;2.54;100.00;101022.28;4966277;28;20026;-75
2022/12/08 00:55:47;;;;;;;0.20;0.20;;;;;;;2.42;100.00;100991.84;4942253;28;20034;-75
2022/12/08 00:58:13;;;;;;;0.20;0.20;;;;;;;2.43;100.00;100990.94;4948350;28;20039;-74
2022/12/08 01:00:42;;;;;;;0.20;0.20;;;;;;;2.39;100.00;100984.91;4957583;28;20456;-74
2022/12/08 01:03:11;;;;;;;0.20;0.20;;;;;;;2.60;100.00;101008.78;4941902;28;20027;-74
2022/12/08 01:05:37;;;;;;;0.20;0.20;;;;;;;2.64;100.00;101009.53;4957910;28;20034;-75
2022/12/08 01:08:07;;;;;;;0.20;0.20;;;;;;;2.61;100.00;101010.50;4951274;28;20038;-74
2022/12/08 01:10:35;;;;;;;0.20;0.20;;;;;;;2.51;100.00;101001.25;4946822;28;20065;-75
2022/12/08 01:13:01;;;;;;;0.20;0.20;;;;;;;2.54;100.00;101012.56;4948274;28;20412;-75
2022/12/08 01:15:26;;;;;;;0.20;0.20;;;;;;;2.52;100.00;101006.47;4967473;28;20081;-75
2022/12/08 01:17:51;;;;;;;0.20;0.20;;;;;;;2.43;100.00;100977.69;4978493;28;20054;-74
2022/12/08 01:20:17;;;;;;;0.10;0.10;;;;;;;2.60;100.00;101006.13;4955186;28;20038;-75
2022/12/08 01:22:42;;;;;;;0.15;0.15;;;;;;;2.63;100.00;100983.97;4967338;28;20030;-73
2022/12/08 01:25:08;;;;;;;0.20;0.20;;;;;;;2.62;100.00;100992.84;4974070;28;20141;-75
2022/12/08 01:27:33;;;;;;;0.20;0.20;;;;;;;2.64;100.00;100989.19;4971601;28;20031;-75
2022/12/08 01:29:58;;;;;;;0.20;0.20;;;;;;;2.73;100.00;100982.63;4952939;28;20033;-73
2022/12/08 01:32:23;;;;;;;0.20;0.20;;;;;;;2.69;100.00;100991.63;4952147;28;20034;-74
2022/12/08 01:34:49;;;;;;;0.20;0.20;;;;;;;2.58;100.00;100978.81;4967026;28;20117;-75
2022/12/08 01:37:14;;;;;;;0.20;0.20;;;;;;;2.51;100.00;100980.88;4957088;28;20030;-75
2022/12/08 01:39:40;;;;;;;0.20;0.20;;;;;;;2.63;100.00;100976.00;4946271;28;20485;-75
2022/12/08 01:42:09;;;;;;;0.20;0.20;;;;;;;2.65;100.00;100990.06;4964230;28;20552;-73
2022/12/08 01:44:35;;;;;;;0.20;0.20;;;;;;;2.52;100.00;100987.03;4951097;28;20055;-74
2022/12/08 01:47:06;;;;;;;0.20;0.20;;;;;;;2.44;100.00;100970.59;4968419;28;20062;-75
2022/12/08 01:49:42;;;;;;;0.15;0.15;;;;;;;2.33;100.00;100956.00;4947812;28;20551;-74
2022/12/08 01:52:17;;;;;;;0.10;0.10;;;;;;;2.35;100.00;100946.22;4932932;28;20509;-74
2022/12/08 01:54:52;;;;;;;0.20;0.20;;;;;;;2.46;100.00;100943.09;4956472;28;20811;-73
2022/12/08 01:57:26;;;;;;;0.10;0.10;;;;;;;2.47;100.00;100960.72;4971254;28;20058;-73
2022/12/08 02:00:04;;;;;;;0.20;0.20;;;;;;;2.52;100.00;100939.31;4947409;28;20480;-76
2022/12/08 02:02:35;;;;;;;0.20;0.20;;;;;;;2.45;100.00;100951.13;4928941;29;20035;-72
2022/12/08 02:05:02;;;;;;;0.20;0.20;;;;;;;2.39;100.00;100939.84;4949988;28;20096;-74
2022/12/08 02:07:28;;;;;;;0.20;0.20;;;;;;;2.41;100.00;100950.38;4978409;28;20085;-73
2022/12/08 02:09:53;;;;;;;0.10;0.10;;;;;;;2.46;100.00;100952.84;4939764;28;20031;-73
2022/12/08 02:12:19;;;;;;;0.10;0.10;;;;;;;2.51;100.00;100950.88;4937983;28;20027;-72
2022/12/08 02:14:44;;;;;;;0.20;0.20;;;;;;;2.50;100.00;100950.00;4966190;28;20415;-72
2022/12/08 02:20:06;;;;;;;0.13;0.13;;;;;;;2.45;100.00;100940.53;4981223;28;20061;-72
2022/12/08 02:22:37;;;;;;;0.20;0.20;;;;;;;2.33;100.00;100929.50;4978513;28;20053;-72
2022/12/08 02:25:23;;;;;;;0.20;0.20;;;;;;;2.48;100.00;100946.56;4980310;28;20361;-73
2022/12/08 02:28:00;;;;;;;0.10;0.10;;;;;;;2.44;100.00;100929.06;4982506;28;20041;-73
2022/12/08 02:30:32;;;;;;;0.20;0.20;;;;;;;2.52;100.00;100926.94;4982986;28;20944;-73
2022/12/08 02:33:37;;;;;;;0.10;0.10;;;;;;;2.49;100.00;100924.41;4981606;28;20420;-72
2022/12/08 02:36:23;;;;;;;0.20;0.20;;;;;;;2.40;100.00;100915.06;4964108;28;20035;-73
2022/12/08 02:39:07;;;;;;;0.20;0.20;;;;;;;2.46;100.00;100919.25;4978464;28;20069;-73
2022/12/08 02:41:41;;;;;;;0.20;0.20;;;;;;;2.28;100.00;100898.84;4982362;28;20468;-73
2022/12/08 02:44:30;;;;;;;0.10;0.10;;;;;;;2.40;100.00;100904.47;4984292;28;20042;-73
2022/12/08 02:47:04;;;;;;;0.20;0.20;;;;;;;2.49;100.00;100902.38;4973089;28;20038;-73
2022/12/08 02:49:34;;;;;;;0.20;0.20;;;;;;;2.45;100.00;100909.56;4976883;28;20033;-72
2022/12/08 02:52:11;;;;;;;0.10;0.10;;;;;;;2.49;100.00;100899.72;4978431;28;20026;-73
2022/12/08 02:54:39;;;;;;;0.20;0.20;;;;;;;2.45;100.00;100903.44;4981435;28;20154;-73
2022/12/08 02:57:05;;;;;;;0.20;0.20;;;;;;;2.46;100.00;100897.19;4984367;28;20113;-73
2022/12/08 02:59:40;;;;;;;0.20;0.20;;;;;;;2.43;100.00;100902.63;4982411;28;20439;-73
2022/12/08 03:02:13;;;;;;;0.15;0.15;;;;;;;2.47;100.00;100898.91;4982099;28;20080;-72
2022/12/08 03:04:52;;;;;;;0.10;0.10;;;;;;;2.45;100.00;100892.81;4983590;28;20062;-73
2022/12/08 03:07:24;;;;;;;0.13;0.13;;;;;;;2.28;100.00;100869.69;4983547;28;20030;-73
2022/12/08 03:09:54;;;;;;;0.20;0.20;;;;;;;2.49;100.00;100891.78;4979373;28;20034;-73
2022/12/08 03:12:27;;;;;;;0.20;0.20;;;;;;;2.54;100.00;100893.28;4967140;28;20413;-73
2022/12/08 03:14:55;;;;;;;0.10;0.10;;;;;;;2.37;100.00;100869.31;4994697;28;20045;-74
2022/12/08 03:17:23;;;;;;;0.10;0.10;;;;;;;2.48;100.00;100896.19;4979091;28;20033;-73
2022/12/08 03:19:49;;;;;;;0.13;0.13;;;;;;;2.38;100.00;100874.53;4993104;28;20025;-73
2022/12/08 03:22:16;;;;;;;0.20;0.20;;;;;;;2.34;100.00;100851.72;4981078;28;20022;-73
2022/12/08 03:24:44;;;;;;;0.20;0.20;;;;;;;2.49;100.00;100889.13;4973503;28;20042;-73
2022/12/08 03:27:19;;;;;;;0.10;0.10;;;;;;;2.51;100.00;100879.31;4986887;28;20084;-73
2022/12/08 03:29:45;;;;;;;0.20;0.20;;;;;;;2.56;100.00;100874.66;4989351;28;20076;-73
2022/12/08 03:32:34;;;;;;;0.20;0.20;;;;;;;2.58;100.00;100872.78;4985603;28;20025;-74
2022/12/08 03:35:03;;;;;;;0.20;0.20;;;;;;;2.51;100.00;100843.06;4982688;28;20449;-73
2022/12/08 03:37:29;;;;;;;0.20;0.20;;;;;;;2.66;100.00;100873.31;4983647;28;20042;-74
2022/12/08 03:39:54;;;;;;;0.10;0.10;;;;;;;2.72;100.00;100860.72;4985841;28;20026;-74
2022/12/08 03:42:20;;;;;;;0.20;0.20;;;;;;;2.66;100.00;100868.03;5002059;28;20070;-74
2022/12/08 03:44:45;;;;;;;0.15;0.15;;;;;;;2.50;100.00;100825.44;4987416;28;20038;-74
2022/12/08 03:47:10;;;;;;;0.10;0.10;;;;;;;2.63;100.00;100854.06;4997944;28;20109;-73
2022/12/08 03:49:36;;;;;;;0.20;0.20;;;;;;;2.62;100.00;100844.38;4989152;28;20113;-74
2022/12/08 03:52:01;;;;;;;0.10;0.10;;;;;;;2.64;100.00;100859.28;4987794;28;20026;-74
2022/12/08 03:54:26;;;;;;;0.20;0.20;;;;;;;2.53;100.00;100850.94;4985038;28;20040;-73
2022/12/08 03:56:52;;;;;;;0.10;0.10;;;;;;;2.57;100.00;100852.50;5000764;28;20055;-74
2022/12/08 03:59:17;;;;;;;0.20;0.20;;;;;;;2.58;100.00;100848.94;5001520;28;20483;-74
2022/12/08 04:01:43;;;;;;;0.10;0.10;;;;;;;2.54;100.00;100832.31;4983895;28;20439;-73
2022/12/08 04:04:08;;;;;;;0.10;0.10;;;;;;;2.61;100.00;100838.19;4987048;28;20037;-73
2022/12/08 04:06:33;;;;;;;0.10;0.10;;;;;;;2.65;100.00;100854.84;4977014;28;20069;-72
2022/12/08 04:08:59;;;;;;;0.17;0.17;;;;;;;2.58;100.00;100843.63;4975737;28;20070;-73
2022/12/08 04:11:24;;;;;;;0.20;0.20;;;;;;;2.53;100.00;100824.41;4999009;28;20029;-73
2022/12/08 04:13:49;;;;;;;0.20;0.20;;;;;;;2.69;100.00;100849.34;5001672;28;20529;-73
2022/12/08 04:16:17;;;;;;;0.20;0.20;;;;;;;2.73;100.00;100838.59;4978309;28;20033;-73
2022/12/08 04:18:43;;;;;;;0.20;0.20;;;;;;;2.78;100.00;100841.91;4985489;28;20137;-73
2022/12/08 04:21:08;;;;;;;0.17;0.17;;;;;;;2.60;100.00;100833.81;4998890;28;20036;-73
2022/12/08 04:23:34;;;;;;;0.10;0.10;;;;;;;2.60;100.00;100830.34;4998344;28;20444;-73
2022/12/08 04:25:59;;;;;;;0.20;0.20;;;;;;;2.63;100.00;100830.19;4985038;28;20044;-73
2022/12/08 04:28:24;;;;;;;0.20;0.20;;;;;;;2.62;100.00;100817.88;4985800;28;20377;-73
2022/12/08 04:30:50;;;;;;;0.20;0.20;;;;;;;2.43;100.00;100801.91;4971874;28;20061;-73
2022/12/08 04:33:15;;;;;;;0.20;0.20;;;;;;;2.51;100.00;100800.66;5000740;28;20128;-73
2022/12/08 04:35:40;;;;;;;0.15;0.15;;;;;;;2.32;100.00;100794.44;4999486;28;23114;-73
2022/12/08 04:38:06;;;;;;;0.20;0.20;;;;;;;2.28;100.00;100788.41;4984780;28;20034;-73
2022/12/08 04:40:32;;;;;;;0.20;0.20;;;;;;;2.28;100.00;100809.59;4995528;28;20133;-73
2022/12/08 04:42:58;;;;;;;0.20;0.20;;;;;;;2.37;100.00;100803.06;4999267;28;20034;-74
2022/12/08 04:45:23;;;;;;;0.20;0.20;;;;;;;2.48;100.00;100813.19;5000309;28;20132;-74
2022/12/08 04:47:48;;;;;;;0.20;0.20;;;;;;;2.36;100.00;100804.00;4982650;28;20022;-73
2022/12/08 04:50:14;;;;;;;0.20;0.20;;;;;;;2.44;100.00;100803.66;4983586;28;20030;-74
2022/12/08 04:52:39;;;;;;;0.17;0.17;;;;;;;2.40;100.00;100789.66;4975027;28;20062;-74
2022/12/08 04:55:04;;;;;;;0.13;0.13;;;;;;;2.61;100.00;100818.81;4982171;28;20435;-74
2022/12/08 04:57:30;;;;;;;0.20;0.20;;;;;;;2.66;100.00;100824.72;4981821;28;20105;-74
2022/12/08 04:59:56;;;;;;;0.20;0.20;;;;;;;2.64;100.00;100808.91;4983080;28;20038;-74
2022/12/08 05:02:21;;;;;;;0.20;0.20;;;;;;;2.51;100.00;100808.59;4976814;28;20063;-75
2022/12/08 05:04:47;;;;;;;0.20;0.20;;;;;;;2.53;100.00;100813.81;4979624;28;20030;-74
2022/12/08 05:07:12;;;;;;;0.20;0.20;;;;;;;2.59;100.00;100802.94;4995434;28;20463;-75
2022/12/08 05:09:38;;;;;;;0.20;0.20;;;;;;;2.65;100.00;100809.78;4994553;28;20534;-75
2022/12/08 05:12:04;;;;;;;0.20;0.20;;;;;;;2.38;100.00;100787.09;4979905;28;20030;-75
2022/12/08 05:14:29;;;;;;;0.20;0.20;;;;;;;2.56;100.00;100805.72;4969410;28;20057;-75
2022/12/08 05:16:55;;;;;;;0.10;0.10;;;;;;;2.29;100.00;100760.13;4978974;28;20342;-75
2022/12/08 05:19:21;;;;;;;0.17;0.17;;;;;;;2.48;100.00;100792.81;4967811;28;20154;-75
2022/12/08 05:21:46;;;;;;;0.13;0.13;;;;;;;2.48;100.00;100794.63;4979301;28;20113;-76
2022/12/08 05:24:11;;;;;;;0.20;0.20;;;;;;;2.47;100.00;100803.50;5001271;28;20440;-75
2022/12/08 05:26:36;;;;;;;0.20;0.20;;;;;;;2.43;100.00;100800.13;4996520;28;20420;-75
2022/12/08 05:29:02;;;;;;;0.20;0.20;;;;;;;2.39;100.00;100783.50;4994643;28;20041;-76
2022/12/08 05:31:27;;;;;;;0.20;0.20;;;;;;;2.53;100.00;100793.50;4980339;28;20025;-75
2022/12/08 05:33:53;;;;;;;0.10;0.10;;;;;;;2.32;100.00;100760.00;4992456;28;20038;-75
2022/12/08 05:36:18;;;;;;;0.20;0.20;;;;;;;2.54;100.00;100803.16;4981191;28;20117;-75
2022/12/08 05:38:44;;;;;;;0.20;0.20;;;;;;;2.52;100.00;100796.19;4980911;28;20037;-74
2022/12/08 05:41:14;;;;;;;0.20;0.20;;;;;;;2.40;100.00;100771.09;4997307;28;20026;-75
2022/12/08 05:43:39;;;;;;;0.20;0.20;;;;;;;2.55;100.00;100786.34;4995911;28;20084;-76
2022/12/08 05:46:06;;;;;;;0.20;0.20;;;;;;;2.54;100.00;100789.03;5003120;28;20033;-76
2022/12/08 05:48:31;;;;;;;0.20;0.20;;;;;;;2.47;100.00;100766.41;5003662;28;20084;-74
2022/12/08 05:50:57;;;;;;;0.10;0.10;;;;;;;2.52;100.00;100785.59;4985169;28;20113;-74
2022/12/08 05:53:23;;;;;;;0.10;0.10;;;;;;;2.16;100.00;100742.13;5000414;28;20117;-74
2022/12/08 05:55:49;;;;;;;0.20;0.20;;;;;;;2.34;100.00;100759.00;4980926;28;20034;-73
2022/12/08 05:58:19;;;;;;;0.10;0.10;;;;;;;2.43;100.00;100772.78;4992603;28;20347;-76
2022/12/08 06:00:45;;;;;;;0.20;0.20;;;;;;;2.46;100.00;100780.59;4980253;28;20014;-75
2022/12/08 06:03:13;;;;;;;0.15;0.15;;;;;;;2.49;100.00;100781.28;4980568;28;20040;-74
2022/12/08 06:05:42;;;;;;;0.10;0.10;;;;;;;2.52;100.00;100782.94;4981052;28;20436;-75
2022/12/08 06:08:08;;;;;;;0.20;0.20;;;;;;;2.57;100.00;100773.00;5002336;28;20030;-76
2022/12/08 06:10:33;;;;;;;0.20;0.20;;;;;;;2.47;100.00;100780.50;4997838;28;20060;-75
2022/12/08 06:12:59;;;;;;;0.20;0.20;;;;;;;2.54;100.00;100783.72;4997008;28;20759;-75
2022/12/08 06:15:24;;;;;;;0.20;0.20;;;;;;;2.62;100.00;100783.41;4978469;28;20072;-74
2022/12/08 06:17:49;;;;;;;0.20;0.20;;;;;;;2.44;100.00;100775.34;4993204;28;20137;-74
2022/12/08 06:20:15;;;;;;;0.20;0.20;;;;;;;2.32;100.00;100763.50;4996096;28;20026;-73
2022/12/08 06:22:40;;;;;;;0.20;0.20;;;;;;;2.30;100.00;100764.50;4994989;28;20033;-74
2022/12/08 06:25:06;;;;;;;0.20;0.20;;;;;;;2.50;100.00;100780.38;4980734;28;20076;-75
2022/12/08 06:27:32;;;;;;;0.10;0.10;;;;;;;2.44;100.00;100780.63;4995782;28;20033;-75
2022/12/08 06:29:58;;;;;;;0.20;0.20;;;;;;;2.44;100.00;100767.38;4981127;28;20380;-74
2022/12/08 06:32:23;;;;;;;0.20;0.20;;;;;;;2.32;100.00;100752.91;4976598;28;20026;-74
2022/12/08 06:34:49;;;;;;;0.20;0.20;;;;;;;2.31;100.00;100769.72;4982095;28;20802;-75
2022/12/08 06:37:14;;;;;;;0.10;0.10;;;;;;;2.36;100.00;100767.75;4999338;28;20121;-74
2022/12/08 06:39:40;;;;;;;0.20;0.20;;;;;;;2.28;100.00;100739.88;5003868;28;20065;-75
2022/12/08 06:44:49;;;;;;;0.15;0.15;;;;;;;2.29;100.00;100768.09;4979785;28;20064;-74
2022/12/08 06:47:15;;;;;;;0.20;0.20;;;;;;;2.30;100.00;100751.25;4981285;28;20030;-75
2022/12/08 06:49:40;;;;;;;0.10;0.10;;;;;;;2.37;100.00;100771.25;4999790;28;20034;-75
2022/12/08 06:52:06;;;;;;;0.20;0.20;;;;;;;2.27;100.00;100757.53;4994769;28;20027;-75
2022/12/08 06:54:31;;;;;;;0.20;0.20;;;;;;;2.33;100.00;100767.03;4996030;28;20030;-75
2022/12/08 06:56:56;;;;;;;0.20;0.20;;;;;;;2.12;100.00;100740.53;4992086;28;20113;-75
2022/12/08 06:59:25;;;;;;;0.20;0.20;;;;;;;2.33;100.00;100773.16;4982361;28;20034;-75
2022/12/08 07:01:50;;;;;;;0.10;0.10;;;;;;;2.25;100.00;100772.66;4978353;28;20033;-73
2022/12/08 07:04:16;;;;;;;0.20;0.20;;;;;;;2.23;100.00;100771.88;4981582;28;20042;-75
2022/12/08 07:06:41;;;;;;;0.20;0.20;;;;;;;2.17;100.00;100753.59;5000985;28;20034;-75
2022/12/08 07:09:07;;;;;;;0.20;0.20;;;;;;;2.20;100.00;100756.09;4977998;28;20030;-74
2022/12/08 07:11:32;;;;;;;0.20;0.20;;;;;;;2.27;100.00;100767.28;4980759;28;20030;-74
2022/12/08 07:13:58;;;;;;;0.17;0.17;;;;;;;2.33;100.00;100775.81;4997208;28;20080;-74
2022/12/08 07:16:23;;;;;;;0.20;0.20;;;;;;;2.17;100.00;100762.38;4979142;28;20109;-76
2022/12/08 07:18:49;;;;;;;0.20;0.20;;;;;;;2.20;100.00;100761.41;5001282;28;20116;-75
2022/12/08 07:21:15;;;;;;;0.20;0.20;;;;;;;2.34;100.00;100784.66;5001209;28;20106;-75
2022/12/08 07:23:41;;;;;;;0.20;0.20;;;;;;;2.39;100.00;100777.31;4981257;28;20538;-75
2022/12/08 07:26:09;;;;;;;0.10;0.10;;;;;;;2.38;100.00;100779.13;4995939;28;20036;-75
2022/12/08 07:28:36;;;;;;;0.20;0.20;;;;;;;2.31;100.00;100756.47;4996144;28;20022;-75
2022/12/08 07:31:03;;;;;;;0.20;0.20;;;;;;;2.30;100.00;100767.16;4982974;28;20092;-75
2022/12/08 07:33:28;;;;;;;0.20;0.20;;;;;;;2.30;100.00;100761.84;4969269;28;20035;-75
2022/12/08 07:35:55;;;;;;;0.10;0.10;;;;;;;2.42;100.00;100771.03;5001930;28;20029;-75
2022/12/08 07:38:20;;;;;;;0.20;0.20;;;;;;;2.57;100.00;100782.75;4995602;28;20037;-76
2022/12/08 07:40:45;;;;;;;0.20;0.20;;;;;;;2.50;100.00;100783.03;4969655;28;20037;-74
2022/12/08 07:43:11;;;;;;;0.10;0.10;;;;;;;2.38;100.00;100762.38;4995681;28;20041;-75
2022/12/08 07:45:36;;;;;;;0.20;0.20;;;;;;;2.57;100.00;100774.78;4992436;28;20168;-74
2022/12/08 07:48:02;;;;;;;0.20;0.20;;;;;;;2.56;100.00;100773.91;4994613;28;20427;-76
2022/12/08 07:50:29;;;;;;;0.10;0.10;;;;;;;2.70;100.00;100775.94;4997391;28;20060;-76
2022/12/08 07:52:54;;;;;;;0.10;0.10;;;;;;;2.66;100.00;100767.28;4981438;28;20081;-76
2022/12/08 07:55:21;;;;;;;0.20;0.20;;;;;;;2.68;100.00;100773.38;4981888;28;20112;-75
2022/12/08 07:57:46;;;;;;;0.20;0.20;;;;;;;2.51;100.00;100763.53;4998868;28;20062;-75
2022/12/08 08:00:12;;;;;;;0.20;0.20;;;;;;;2.57;100.00;100772.16;4981120;28;20420;-76
2022/12/08 08:02:38;;;;;;;0.10;0.10;;;;;;;2.67;100.00;100778.72;4999095;28;20443;-76
2022/12/08 08:05:03;;;;;;;0.10;0.10;;;;;;;2.60;100.00;100783.47;5003065;28;20033;-75
2022/12/08 08:07:30;;;;;;;0.20;0.20;;;;;;;2.65;100.00;100780.63;4998987;28;20075;-75
2022/12/08 08:09:55;;;;;;;0.20;0.20;;;;;;;2.32;100.00;100742.31;5001756;28;20531;-75
2022/12/08 08:12:20;;;;;;;0.20;0.20;;;;;;;2.39;100.00;100742.88;4997480;28;20044;-76
2022/12/08 08:14:46;;;;;;;0.20;0.20;;;;;;;2.53;100.00;100761.69;5001534;28;20037;-75
2022/12/08 08:17:11;;;;;;;0.20;0.20;;;;;;;2.49;100.00;100753.94;4980576;28;20080;-75
2022/12/08 08:19:36;;;;;;;0.10;0.10;;;;;;;2.47;100.00;100750.50;4979356;28;20049;-76
2022/12/08 08:22:02;;;;;;;0.20;0.20;;;;;;;2.63;100.00;100777.19;4982932;28;20081;-76
2022/12/08 08:24:27;;;;;;;0.10;0.10;;;;;;;2.49;100.00;100764.56;4999693;28;20061;-75
2022/12/08 08:26:54;;;;;;;0.20;0.20;;;;;;;2.40;100.00;100753.44;4998872;28;20033;-75
2022/12/08 08:29:19;;;;;;;0.17;0.17;;;;;;;2.57;100.00;100785.41;4988028;28;20559;-75
2022/12/08 08:31:44;;;;;;;0.20;0.20;;;;;;;2.51;100.00;100760.88;4998941;28;20044;-75
2022/12/08 08:34:10;;;;;;;0.20;0.20;;;;;;;2.60;100.00;100788.75;4986728;28;20025;-75
2022/12/08 08:36:35;;;;;;;0.20;0.20;;;;;;;2.49;100.00;100768.03;4968705;28;20480;-75
2022/12/08 08:39:00;;;;;;;0.20;0.20;;;;;;;2.58;100.00;100773.88;4984236;28;20030;-76
2022/12/08 08:41:26;;;;;;;0.20;0.20;;;;;;;2.63;100.00;100778.03;4982323;28;20356;-76
2022/12/08 08:43:52;;;;;;;0.10;0.10;;;;;;;2.58;100.00;100790.63;4978593;28;20060;-75
2022/12/08 08:46:18;;;;;;;0.20;0.20;;;;;;;2.74;100.00;100797.91;4972595;28;20088;-76
2022/12/08 08:48:43;;;;;;;0.17;0.17;;;;;;;2.69;100.00;100792.78;5005293;28;20030;-76
2022/12/08 08:51:10;;;;;;;0.20;0.20;;;;;;;2.64;100.00;100795.66;4991597;28;20030;-76
2022/12/08 08:53:35;;;;;;;0.10;0.10;;;;;;;2.67;100.00;100792.88;4985114;28;20112;-75
2022/12/08 08:56:01;;;;;;;0.20;0.20;;;;;;;2.70;100.00;100797.16;4975228;28;20036;-75
2022/12/08 08:58:26;;;;;;;0.17;0.17;;;;;;;2.70;100.00;100794.50;5002436;28;20026;-76
2022/12/08 09:00:51;;;;;;;0.20;0.20;;;;;;;2.66;100.00;100775.25;4981575;28;20029;-75
2022/12/08 09:03:17;;;;;;;0.10;0.10;;;;;;;2.61;100.00;100797.59;4994451;28;20097;-75
2022/12/08 09:05:43;;;;;;;0.20;0.20;;;;;;;2.68;100.00;100799.00;4986726;28;20087;-75
2022/12/08 09:08:08;;;;;;;0.10;0.10;;;;;;;2.62;100.00;100794.00;4979992;28;20609;-75
2022/12/08 09:10:34;;;;;;;0.15;0.15;;;;;;;2.74;100.00;100805.84;5001723;28;20037;-75
2022/12/08 09:13:00;;;;;;;0.20;0.20;;;;;;;2.73;100.00;100804.97;4987940;28;20041;-75
2022/12/08 09:15:25;;;;;;;0.20;0.20;;;;;;;2.52;100.00;100789.13;4981677;28;20044;-75
2022/12/08 09:17:51;;;;;;;0.20;0.20;;;;;;;2.58;100.00;100800.38;4977218;28;20063;-75
2022/12/08 09:20:16;;;;;;;0.20;0.20;;;;;;;2.61;100.00;100789.63;4969110;28;20036;-75
2022/12/08 09:22:41;;;;;;;0.17;0.17;;;;;;;2.52;100.00;100798.84;4998750;28;20042;-75
2022/12/08 09:25:07;;;;;;;0.10;0.10;;;;;;;2.32;100.00;100784.69;4975957;28;20038;-75
2022/12/08 09:27:32;;;;;;;0.20;0.20;;;;;;;2.33;100.00;100798.81;5002418;28;20347;-75
2022/12/08 09:29:58;;;;;;;0.20;0.20;;;;;;;2.36;100.00;100780.16;4980885;28;20029;-75
2022/12/08 09:32:23;;;;;;;0.10;0.10;;;;;;;2.38;100.00;100778.28;4991006;28;20036;-75
2022/12/08 09:34:48;;;;;;;0.10;0.10;;;;;;;2.30;100.00;100775.94;4973781;28;20065;-75
2022/12/08 09:37:14;;;;;;;0.10;0.10;;;;;;;2.37;100.00;100776.56;4978908;28;20491;-75
2022/12/08 09:39:39;;;;;;;0.10;0.10;;;;;;;2.47;100.00;100777.00;4967521;28;20023;-75
2022/12/08 09:42:06;;;;;;;0.20;0.20;;;;;;;2.62;100.00;100796.66;4971518;28;20037;-76
2022/12/08 09:44:46;;;;;;;0.20;0.20;;;;;;;2.71;100.00;100796.22;4980989;28;20439;-75
2022/12/08 09:47:20;;;;;;;0.20;0.20;;;;;;;2.65;100.00;100780.63;4971966;28;20113;-75
2022/12/08 09:50:19;;;;;;;0.20;0.20;;;;;;;2.68;100.00;100801.66;4968603;28;20488;-75
2022/12/08 09:53:00;;;;;;;0.20;0.20;;;;;;;2.70;100.00;100792.72;4970423;28;20477;-75
2022/12/08 09:55:41;;;;;;;0.20;0.20;;;;;;;2.80;100.00;100790.50;4983129;28;20057;-75
2022/12/08 09:58:46;;;;;;;0.20;0.20;;;;;;;2.88;100.00;100795.44;4972233;28;20457;-75
2022/12/08 10:01:12;;;;;;;0.20;0.20;;;;;;;2.92;100.00;100796.16;4992138;28;20583;-75
2022/12/08 10:03:37;;;;;;;0.20;0.20;;;;;;;2.74;100.00;100780.19;4960334;28;20068;-75
2022/12/08 10:06:13;;;;;;;0.20;0.20;;;;;;;2.66;100.00;100777.88;4967085;28;20038;-76
2022/12/08 10:09:22;;;;;;;0.20;0.20;;;;;;;2.89;100.00;100791.88;4974175;28;20036;-75
2022/12/08 10:12:03;;;;;;;0.20;0.20;;;;;;;2.94;100.00;100784.56;4983799;28;20088;-76
2022/12/08 10:14:50;;;;;;;0.10;0.10;;;;;;;2.85;100.00;100790.28;4998796;28;21388;-75
2022/12/08 10:17:25;;;;;;;0.20;0.20;;;;;;;2.81;100.00;100760.41;4956784;28;1035374;-75
2022/12/08 10:19:55;;;;;;;0.20;0.20;;;;;;;2.86;100.00;100778.75;4978791;28;20482;-76
2022/12/08 10:22:23;;;;;;;0.20;0.20;;;;;;;2.90;100.00;100771.53;4980223;28;20160;-75
2022/12/08 10:24:58;;;;;;;0.10;0.10;;;;;;;2.90;100.00;100780.34;4973986;28;20392;-75
2022/12/08 10:27:23;;;;;;;0.10;0.10;;;;;;;2.77;100.00;100739.44;4983122;28;20471;-74
2022/12/08 10:29:49;;;;;;;0.10;0.10;;;;;;;2.97;100.00;100760.56;4980865;28;20037;-75
2022/12/08 10:32:19;;;;;;;0.13;0.13;;;;;;;3.05;100.00;100775.22;4985633;28;20034;-75
2022/12/08 10:35:21;;;;;;;0.20;0.20;;;;;;;3.04;100.00;100766.41;4977003;28;20034;-75
2022/12/08 10:38:00;;;;;;;0.20;0.20;;;;;;;3.07;100.00;100768.94;4906039;29;20043;-76
2022/12/08 10:40:34;;;;;;;0.20;0.20;;;;;;;2.88;100.00;100734.47;4963705;28;20042;-75
2022/12/08 10:43:00;;;;;;;0.10;0.10;;;;;;;2.91;100.00;100744.91;4983737;28;20042;-76
2022/12/08 10:45:36;;;;;;;0.20;0.20;;;;;;;2.95;100.00;100746.50;4979148;28;20034;-76
2022/12/08 10:48:04;;;;;;;0.20;0.20;;;;;;;2.91;100.00;100730.81;4985751;28;20061;-76
2022/12/08 10:51:08;;;;;;;0.20;0.20;;;;;;;3.20;100.00;100761.25;4980196;28;20134;-76
2022/12/08 10:53:44;;;;;;;0.20;0.20;;;;;;;3.23;100.00;100757.56;4875697;29;20212;-76
2022/12/08 10:56:16;;;;;;;0.10;0.10;;;;;;;3.09;100.00;100752.94;4991171;28;20463;-76
2022/12/08 10:58:43;;;;;;;0.20;0.20;;;;;;;3.37;100.00;100751.59;4976201;28;20030;-75
2022/12/08 11:01:14;;;;;;;0.10;0.10;;;;;;;3.15;100.00;100750.00;4978293;28;20489;-76
2022/12/08 11:03:45;;;;;;;0.15;0.15;;;;;;;3.07;100.00;100752.13;4979941;28;20022;-75
2022/12/08 11:06:17;;;;;;;0.10;0.10;;;;;;;3.19;100.00;100763.94;5000937;28;20484;-75
2022/12/08 11:08:48;;;;;;;0.20;0.20;;;;;;;3.21;100.00;100756.78;4986683;28;20072;-76
2022/12/08 11:11:13;;;;;;;0.20;0.20;;;;;;;3.32;100.00;100750.94;4986714;28;20025;-75
2022/12/08 11:13:40;;;;;;;0.20;0.20;;;;;;;3.36;100.00;100737.47;4984503;28;20544;-75
2022/12/08 11:16:06;;;;;;;0.20;0.20;;;;;;;3.39;100.00;100725.84;4979386;28;20037;-75
2022/12/08 11:18:43;;;;;;;0.10;0.10;;;;;;;3.31;100.00;100736.84;4975664;28;20407;-75
2022/12/08 11:21:16;;;;;;;0.20;0.20;;;;;;;3.49;100.00;100736.84;4987891;28;20037;-75
2022/12/08 11:23:46;;;;;;;0.20;0.20;;;;;;;3.24;100.00;100733.63;5002355;28;20595;-75
2022/12/08 11:26:29;;;;;;;0.10;0.10;;;;;;;3.48;100.00;100740.44;4983783;28;20046;-75
2022/12/08 11:28:54;;;;;;;0.13;0.13;;;;;;;3.19;100.00;100709.13;4981443;28;20034;-76
2022/12/08 11:31:32;;;;;;;0.10;0.10;;;;;;;3.46;100.00;100735.22;4975407;28;20031;-76
2022/12/08 11:33:58;;;;;;;0.10;0.10;;;;;;;3.46;100.00;100724.59;5004780;28;20629;-76
2022/12/08 11:36:25;;;;;;;0.10;0.10;;;;;;;3.59;100.00;100722.19;4998123;28;20113;-75
2022/12/08 11:38:55;;;;;;;0.20;0.20;;;;;;;3.45;100.00;100710.44;4985811;28;20029;-75